sensor_id;sensor_type;location;lat;lon;timestamp;temperature;humidity
58519;DHT22;44310;48.106;12.008;2023-05-27T00:00:45;19.20;81.90
58519;DHT22;44310;48.106;12.008;2023-05-27T00:03:13;19.20;81.80
58519;DHT22;44310;48.106;12.008;2023-05-27T00:05:40;19.20;81.70
58519;DHT22;44310;48.106;12.008;2023-05-27T00:08:07;19.20;81.70
58519;DHT22;44310;48.106;12.008;2023-05-27T00:10:34;19.20;81.50
58519;DHT22;44310;48.106;12.008;2023-05-27T00:13:01;19.60;81.60
58519;DHT22;44310;48.106;12.008;2023-05-27T00:15:29;19.20;81.40
58519;DHT22;44310;48.106;12.008;2023-05-27T00:17:58;19.20;81.40
58519;DHT22;44310;48.106;12.008;2023-05-27T00:20:27;19.10;81.20
58519;DHT22;44310;48.106;12.008;2023-05-27T00:22:54;19.10;81.10
58519;DHT22;44310;48.106;12.008;2023-05-27T00:25:22;19.10;81.10
58519;DHT22;44310;48.106;12.008;2023-05-27T00:27:49;19.30;81.30
58519;DHT22;44310;48.106;12.008;2023-05-27T00:30:17;19.20;81.30
58519;DHT22;44310;48.106;12.008;2023-05-27T00:32:44;19.10;81.20
58519;DHT22;44310;48.106;12.008;2023-05-27T00:35:14;19.10;81.10
58519;DHT22;44310;48.106;12.008;2023-05-27T00:37:42;19.10;80.90
58519;DHT22;44310;48.106;12.008;2023-05-27T00:40:11;19.10;80.80
58519;DHT22;44310;48.106;12.008;2023-05-27T00:42:38;19.10;80.70
58519;DHT22;44310;48.106;12.008;2023-05-27T00:45:06;19.10;80.90
58519;DHT22;44310;48.106;12.008;2023-05-27T00:47:34;19.20;81.80
58519;DHT22;44310;48.106;12.008;2023-05-27T00:50:03;19.10;81.80
58519;DHT22;44310;48.106;12.008;2023-05-27T00:52:30;19.20;81.80
58519;DHT22;44310;48.106;12.008;2023-05-27T00:54:59;19.20;81.60
58519;DHT22;44310;48.106;12.008;2023-05-27T00:57:26;19.10;81.50
58519;DHT22;44310;48.106;12.008;2023-05-27T00:59:53;19.20;81.30
58519;DHT22;44310;48.106;12.008;2023-05-27T01:02:21;19.20;81.20
58519;DHT22;44310;48.106;12.008;2023-05-27T01:04:49;19.20;81.00
58519;DHT22;44310;48.106;12.008;2023-05-27T01:07:31;19.20;81.00
58519;DHT22;44310;48.106;12.008;2023-05-27T01:10:29;19.10;80.90
58519;DHT22;44310;48.106;12.008;2023-05-27T01:13:09;19.10;80.80
58519;DHT22;44310;48.106;12.008;2023-05-27T01:15:38;19.10;80.90
58519;DHT22;44310;48.106;12.008;2023-05-27T01:18:07;19.10;80.90
58519;DHT22;44310;48.106;12.008;2023-05-27T01:20:36;19.10;80.80
58519;DHT22;44310;48.106;12.008;2023-05-27T01:23:08;19.10;80.80
58519;DHT22;44310;48.106;12.008;2023-05-27T01:25:36;19.00;80.70
58519;DHT22;44310;48.106;12.008;2023-05-27T01:28:03;19.10;80.50
58519;DHT22;44310;48.106;12.008;2023-05-27T01:30:30;19.10;80.40
58519;DHT22;44310;48.106;12.008;2023-05-27T01:33:08;19.10;80.60
58519;DHT22;44310;48.106;12.008;2023-05-27T01:38:15;19.20;81.00
58519;DHT22;44310;48.106;12.008;2023-05-27T01:40:43;19.20;80.90
58519;DHT22;44310;48.106;12.008;2023-05-27T01:43:12;19.20;80.80
58519;DHT22;44310;48.106;12.008;2023-05-27T01:45:40;19.20;80.70
58519;DHT22;44310;48.106;12.008;2023-05-27T01:48:08;19.20;80.50
58519;DHT22;44310;48.106;12.008;2023-05-27T01:50:37;19.20;80.30
58519;DHT22;44310;48.106;12.008;2023-05-27T01:53:04;19.10;80.00
58519;DHT22;44310;48.106;12.008;2023-05-27T01:55:31;19.20;79.90
58519;DHT22;44310;48.106;12.008;2023-05-27T01:57:58;19.20;79.70
58519;DHT22;44310;48.106;12.008;2023-05-27T02:00:25;19.20;79.60
58519;DHT22;44310;48.106;12.008;2023-05-27T02:02:53;19.20;79.40
58519;DHT22;44310;48.106;12.008;2023-05-27T02:05:20;19.20;79.30
58519;DHT22;44310;48.106;12.008;2023-05-27T02:07:47;19.10;79.10
58519;DHT22;44310;48.106;12.008;2023-05-27T02:10:14;19.10;78.90
58519;DHT22;44310;48.106;12.008;2023-05-27T02:12:41;19.10;78.80
58519;DHT22;44310;48.106;12.008;2023-05-27T02:15:09;19.50;79.00
58519;DHT22;44310;48.106;12.008;2023-05-27T02:17:36;19.10;78.60
58519;DHT22;44310;48.106;12.008;2023-05-27T02:20:05;19.10;78.30
58519;DHT22;44310;48.106;12.008;2023-05-27T02:22:32;19.00;78.20
58519;DHT22;44310;48.106;12.008;2023-05-27T02:25:00;19.10;78.20
58519;DHT22;44310;48.106;12.008;2023-05-27T02:27:27;19.10;78.20
58519;DHT22;44310;48.106;12.008;2023-05-27T02:29:54;19.10;78.30
58519;DHT22;44310;48.106;12.008;2023-05-27T02:32:21;19.10;78.80
58519;DHT22;44310;48.106;12.008;2023-05-27T02:34:48;19.10;78.80
58519;DHT22;44310;48.106;12.008;2023-05-27T02:37:16;19.20;78.80
58519;DHT22;44310;48.106;12.008;2023-05-27T02:39:43;19.10;78.80
58519;DHT22;44310;48.106;12.008;2023-05-27T02:42:10;19.20;78.70
58519;DHT22;44310;48.106;12.008;2023-05-27T02:44:37;19.10;78.60
58519;DHT22;44310;48.106;12.008;2023-05-27T02:47:04;19.10;78.60
58519;DHT22;44310;48.106;12.008;2023-05-27T02:49:32;19.10;78.60
58519;DHT22;44310;48.106;12.008;2023-05-27T02:51:59;19.20;78.60
58519;DHT22;44310;48.106;12.008;2023-05-27T02:54:26;19.10;78.50
58519;DHT22;44310;48.106;12.008;2023-05-27T02:56:53;19.30;78.60
58519;DHT22;44310;48.106;12.008;2023-05-27T02:59:20;19.10;78.20
58519;DHT22;44310;48.106;12.008;2023-05-27T03:01:47;19.10;79.00
58519;DHT22;44310;48.106;12.008;2023-05-27T03:04:15;19.20;78.60
58519;DHT22;44310;48.106;12.008;2023-05-27T03:06:43;19.10;78.50
58519;DHT22;44310;48.106;12.008;2023-05-27T03:09:10;19.10;78.60
58519;DHT22;44310;48.106;12.008;2023-05-27T03:11:37;19.10;78.40
58519;DHT22;44310;48.106;12.008;2023-05-27T03:14:04;19.10;78.20
58519;DHT22;44310;48.106;12.008;2023-05-27T03:16:32;19.10;78.00
58519;DHT22;44310;48.106;12.008;2023-05-27T03:18:59;19.10;78.60
58519;DHT22;44310;48.106;12.008;2023-05-27T03:21:26;19.10;77.90
58519;DHT22;44310;48.106;12.008;2023-05-27T03:23:53;19.00;77.70
58519;DHT22;44310;48.106;12.008;2023-05-27T03:26:20;19.10;77.80
58519;DHT22;44310;48.106;12.008;2023-05-27T03:28:48;19.00;77.60
58519;DHT22;44310;48.106;12.008;2023-05-27T03:31:16;19.10;77.60
58519;DHT22;44310;48.106;12.008;2023-05-27T03:33:43;19.00;77.70
58519;DHT22;44310;48.106;12.008;2023-05-27T03:36:10;18.90;77.80
58519;DHT22;44310;48.106;12.008;2023-05-27T03:38:37;19.00;78.00
58519;DHT22;44310;48.106;12.008;2023-05-27T03:41:04;19.00;77.80
58519;DHT22;44310;48.106;12.008;2023-05-27T03:43:35;19.00;77.60
58519;DHT22;44310;48.106;12.008;2023-05-27T03:46:02;18.90;77.50
58519;DHT22;44310;48.106;12.008;2023-05-27T03:48:29;19.00;77.50
58519;DHT22;44310;48.106;12.008;2023-05-27T03:50:56;19.00;77.60
58519;DHT22;44310;48.106;12.008;2023-05-27T03:53:23;19.00;78.20
58519;DHT22;44310;48.106;12.008;2023-05-27T03:55:50;19.00;78.30
58519;DHT22;44310;48.106;12.008;2023-05-27T03:58:17;19.10;78.30
58519;DHT22;44310;48.106;12.008;2023-05-27T04:00:45;19.10;78.20
58519;DHT22;44310;48.106;12.008;2023-05-27T04:03:14;19.20;78.30
58519;DHT22;44310;48.106;12.008;2023-05-27T04:05:42;19.10;78.20
58519;DHT22;44310;48.106;12.008;2023-05-27T04:08:09;19.00;78.10
58519;DHT22;44310;48.106;12.008;2023-05-27T04:10:36;19.20;78.10
58519;DHT22;44310;48.106;12.008;2023-05-27T04:13:04;19.20;78.00
58519;DHT22;44310;48.106;12.008;2023-05-27T04:15:32;19.00;77.70
58519;DHT22;44310;48.106;12.008;2023-05-27T04:17:59;19.10;77.70
58519;DHT22;44310;48.106;12.008;2023-05-27T04:20:34;19.10;77.50
58519;DHT22;44310;48.106;12.008;2023-05-27T04:23:02;19.10;77.80
58519;DHT22;44310;48.106;12.008;2023-05-27T04:25:29;19.10;77.70
58519;DHT22;44310;48.106;12.008;2023-05-27T04:27:57;19.10;77.20
58519;DHT22;44310;48.106;12.008;2023-05-27T04:30:24;19.10;76.90
58519;DHT22;44310;48.106;12.008;2023-05-27T04:32:52;19.00;76.60
58519;DHT22;44310;48.106;12.008;2023-05-27T04:35:19;19.00;76.50
58519;DHT22;44310;48.106;12.008;2023-05-27T04:37:48;18.90;76.20
58519;DHT22;44310;48.106;12.008;2023-05-27T04:40:16;18.90;76.50
58519;DHT22;44310;48.106;12.008;2023-05-27T04:42:43;18.20;76.20
58519;DHT22;44310;48.106;12.008;2023-05-27T04:45:10;18.90;76.60
58519;DHT22;44310;48.106;12.008;2023-05-27T04:47:38;19.00;77.30
58519;DHT22;44310;48.106;12.008;2023-05-27T04:50:08;19.00;77.30
58519;DHT22;44310;48.106;12.008;2023-05-27T04:52:35;19.10;77.20
58519;DHT22;44310;48.106;12.008;2023-05-27T04:55:10;19.00;76.90
58519;DHT22;44310;48.106;12.008;2023-05-27T04:57:38;19.10;77.60
58519;DHT22;44310;48.106;12.008;2023-05-27T05:00:09;19.00;76.70
58519;DHT22;44310;48.106;12.008;2023-05-27T05:02:36;19.10;76.70
58519;DHT22;44310;48.106;12.008;2023-05-27T05:05:10;19.10;77.20
58519;DHT22;44310;48.106;12.008;2023-05-27T05:07:37;19.10;76.50
58519;DHT22;44310;48.106;12.008;2023-05-27T05:10:15;19.10;76.50
58519;DHT22;44310;48.106;12.008;2023-05-27T05:12:42;19.10;76.40
58519;DHT22;44310;48.106;12.008;2023-05-27T05:15:09;19.10;76.30
58519;DHT22;44310;48.106;12.008;2023-05-27T05:17:37;19.10;76.20
58519;DHT22;44310;48.106;12.008;2023-05-27T05:20:04;19.10;76.00
58519;DHT22;44310;48.106;12.008;2023-05-27T05:22:32;19.10;76.00
58519;DHT22;44310;48.106;12.008;2023-05-27T05:25:00;19.20;76.20
58519;DHT22;44310;48.106;12.008;2023-05-27T05:27:27;19.20;76.20
58519;DHT22;44310;48.106;12.008;2023-05-27T05:29:55;19.10;76.00
58519;DHT22;44310;48.106;12.008;2023-05-27T05:32:22;19.30;76.00
58519;DHT22;44310;48.106;12.008;2023-05-27T05:34:49;19.10;76.00
58519;DHT22;44310;48.106;12.008;2023-05-27T05:37:16;19.10;75.80
58519;DHT22;44310;48.106;12.008;2023-05-27T05:39:43;19.10;75.80
58519;DHT22;44310;48.106;12.008;2023-05-27T05:42:10;19.10;75.70
58519;DHT22;44310;48.106;12.008;2023-05-27T05:44:38;19.20;75.70
58519;DHT22;44310;48.106;12.008;2023-05-27T05:47:06;19.10;75.70
58519;DHT22;44310;48.106;12.008;2023-05-27T05:49:33;19.10;75.70
58519;DHT22;44310;48.106;12.008;2023-05-27T05:52:00;19.10;75.60
58519;DHT22;44310;48.106;12.008;2023-05-27T05:54:28;19.10;75.60
58519;DHT22;44310;48.106;12.008;2023-05-27T05:56:55;19.10;75.50
58519;DHT22;44310;48.106;12.008;2023-05-27T05:59:22;19.10;75.50
58519;DHT22;44310;48.106;12.008;2023-05-27T06:01:49;19.10;75.70
58519;DHT22;44310;48.106;12.008;2023-05-27T06:04:17;19.20;75.80
58519;DHT22;44310;48.106;12.008;2023-05-27T06:06:44;19.10;75.60
58519;DHT22;44310;48.106;12.008;2023-05-27T06:09:11;19.10;75.60
58519;DHT22;44310;48.106;12.008;2023-05-27T06:11:38;19.10;75.50
58519;DHT22;44310;48.106;12.008;2023-05-27T06:14:05;19.10;75.50
58519;DHT22;44310;48.106;12.008;2023-05-27T06:16:34;18.70;75.30
58519;DHT22;44310;48.106;12.008;2023-05-27T06:19:04;19.10;75.40
58519;DHT22;44310;48.106;12.008;2023-05-27T06:21:32;19.10;75.30
58519;DHT22;44310;48.106;12.008;2023-05-27T06:24:00;19.10;75.20
58519;DHT22;44310;48.106;12.008;2023-05-27T06:26:28;19.10;75.20
58519;DHT22;44310;48.106;12.008;2023-05-27T06:28:55;19.10;75.10
58519;DHT22;44310;48.106;12.008;2023-05-27T06:31:22;19.10;75.10
58519;DHT22;44310;48.106;12.008;2023-05-27T06:33:52;19.10;75.10
58519;DHT22;44310;48.106;12.008;2023-05-27T06:36:19;19.10;75.00
58519;DHT22;44310;48.106;12.008;2023-05-27T06:38:48;19.10;74.90
58519;DHT22;44310;48.106;12.008;2023-05-27T06:41:15;19.10;74.90
58519;DHT22;44310;48.106;12.008;2023-05-27T06:43:42;19.10;74.90
58519;DHT22;44310;48.106;12.008;2023-05-27T06:46:09;19.20;75.10
58519;DHT22;44310;48.106;12.008;2023-05-27T06:48:36;19.10;74.90
58519;DHT22;44310;48.106;12.008;2023-05-27T06:51:05;19.20;75.60
58519;DHT22;44310;48.106;12.008;2023-05-27T06:53:33;19.10;74.80
58519;DHT22;44310;48.106;12.008;2023-05-27T06:56:02;19.20;74.90
58519;DHT22;44310;48.106;12.008;2023-05-27T06:58:29;19.20;75.60
58519;DHT22;44310;48.106;12.008;2023-05-27T07:00:56;19.20;75.10
58519;DHT22;44310;48.106;12.008;2023-05-27T07:03:23;19.10;75.00
58519;DHT22;44310;48.106;12.008;2023-05-27T07:05:50;19.80;75.30
58519;DHT22;44310;48.106;12.008;2023-05-27T07:08:18;19.20;75.30
58519;DHT22;44310;48.106;12.008;2023-05-27T07:10:45;19.20;75.40
58519;DHT22;44310;48.106;12.008;2023-05-27T07:13:12;19.20;75.30
58519;DHT22;44310;48.106;12.008;2023-05-27T07:15:41;19.10;75.50
58519;DHT22;44310;48.106;12.008;2023-05-27T07:18:08;19.20;75.50
58519;DHT22;44310;48.106;12.008;2023-05-27T07:20:35;19.20;75.50
58519;DHT22;44310;48.106;12.008;2023-05-27T07:23:03;19.20;75.50
58519;DHT22;44310;48.106;12.008;2023-05-27T07:25:30;19.20;75.70
58519;DHT22;44310;48.106;12.008;2023-05-27T07:27:57;19.20;75.70
58519;DHT22;44310;48.106;12.008;2023-05-27T07:30:24;19.20;75.60
58519;DHT22;44310;48.106;12.008;2023-05-27T07:32:52;19.20;76.20
58519;DHT22;44310;48.106;12.008;2023-05-27T07:35:20;19.20;75.60
58519;DHT22;44310;48.106;12.008;2023-05-27T07:37:47;19.00;73.70
58519;DHT22;44310;48.106;12.008;2023-05-27T07:40:14;18.90;74.40
58519;DHT22;44310;48.106;12.008;2023-05-27T07:42:41;18.80;74.30
58519;DHT22;44310;48.106;12.008;2023-05-27T07:45:09;18.70;73.10
58519;DHT22;44310;48.106;12.008;2023-05-27T07:47:36;18.60;73.20
58519;DHT22;44310;48.106;12.008;2023-05-27T07:50:03;18.70;74.00
58519;DHT22;44310;48.106;12.008;2023-05-27T07:52:30;18.80;74.70
58519;DHT22;44310;48.106;12.008;2023-05-27T07:54:58;18.90;75.10
58519;DHT22;44310;48.106;12.008;2023-05-27T07:57:25;19.00;75.30
58519;DHT22;44310;48.106;12.008;2023-05-27T07:59:52;19.10;75.40
58519;DHT22;44310;48.106;12.008;2023-05-27T08:02:19;19.20;75.60
58519;DHT22;44310;48.106;12.008;2023-05-27T08:04:49;19.20;76.10
58519;DHT22;44310;48.106;12.008;2023-05-27T08:07:16;19.20;76.60
58519;DHT22;44310;48.106;12.008;2023-05-27T08:09:43;19.30;76.90
58519;DHT22;44310;48.106;12.008;2023-05-27T08:12:11;19.40;77.10
58519;DHT22;44310;48.106;12.008;2023-05-27T08:14:39;19.30;77.40
58519;DHT22;44310;48.106;12.008;2023-05-27T08:17:07;19.30;77.50
58519;DHT22;44310;48.106;12.008;2023-05-27T08:19:34;19.40;77.70
58519;DHT22;44310;48.106;12.008;2023-05-27T08:22:01;19.40;77.70
58519;DHT22;44310;48.106;12.008;2023-05-27T08:24:31;19.30;77.60
58519;DHT22;44310;48.106;12.008;2023-05-27T08:26:59;19.30;77.90
58519;DHT22;44310;48.106;12.008;2023-05-27T08:29:26;19.30;78.00
58519;DHT22;44310;48.106;12.008;2023-05-27T08:31:54;19.30;78.00
58519;DHT22;44310;48.106;12.008;2023-05-27T08:34:23;19.20;77.90
58519;DHT22;44310;48.106;12.008;2023-05-27T08:36:50;19.20;78.10
58519;DHT22;44310;48.106;12.008;2023-05-27T08:39:17;19.30;78.70
58519;DHT22;44310;48.106;12.008;2023-05-27T08:41:45;19.30;79.00
58519;DHT22;44310;48.106;12.008;2023-05-27T08:44:12;19.30;79.10
58519;DHT22;44310;48.106;12.008;2023-05-27T08:46:51;19.50;79.10
58519;DHT22;44310;48.106;12.008;2023-05-27T08:49:18;19.40;79.00
58519;DHT22;44310;48.106;12.008;2023-05-27T08:51:46;19.40;79.00
58519;DHT22;44310;48.106;12.008;2023-05-27T08:54:13;19.40;79.00
58519;DHT22;44310;48.106;12.008;2023-05-27T08:56:43;19.40;78.90
58519;DHT22;44310;48.106;12.008;2023-05-27T08:59:11;19.30;78.80
58519;DHT22;44310;48.106;12.008;2023-05-27T09:01:39;19.30;79.00
58519;DHT22;44310;48.106;12.008;2023-05-27T09:04:07;19.40;79.00
58519;DHT22;44310;48.106;12.008;2023-05-27T09:06:34;19.20;79.30
58519;DHT22;44310;48.106;12.008;2023-05-27T09:09:01;19.30;79.10
58519;DHT22;44310;48.106;12.008;2023-05-27T09:11:28;19.40;79.10
58519;DHT22;44310;48.106;12.008;2023-05-27T09:14:01;19.30;79.20
58519;DHT22;44310;48.106;12.008;2023-05-27T09:16:28;19.40;79.30
58519;DHT22;44310;48.106;12.008;2023-05-27T09:18:55;19.40;79.30
58519;DHT22;44310;48.106;12.008;2023-05-27T09:21:24;19.40;79.30
58519;DHT22;44310;48.106;12.008;2023-05-27T09:23:56;19.40;79.90
58519;DHT22;44310;48.106;12.008;2023-05-27T09:26:25;19.40;79.30
58519;DHT22;44310;48.106;12.008;2023-05-27T09:28:53;19.40;79.50
58519;DHT22;44310;48.106;12.008;2023-05-27T09:31:21;19.40;79.50
58519;DHT22;44310;48.106;12.008;2023-05-27T09:33:50;19.40;79.50
58519;DHT22;44310;48.106;12.008;2023-05-27T09:36:20;19.40;79.40
58519;DHT22;44310;48.106;12.008;2023-05-27T09:38:52;19.40;79.20
58519;DHT22;44310;48.106;12.008;2023-05-27T09:41:23;19.40;79.20
58519;DHT22;44310;48.106;12.008;2023-05-27T09:43:55;19.40;79.40
58519;DHT22;44310;48.106;12.008;2023-05-27T09:46:23;19.40;79.40
58519;DHT22;44310;48.106;12.008;2023-05-27T09:48:52;19.90;79.70
58519;DHT22;44310;48.106;12.008;2023-05-27T09:51:19;19.40;79.40
58519;DHT22;44310;48.106;12.008;2023-05-27T09:53:47;19.40;79.50
58519;DHT22;44310;48.106;12.008;2023-05-27T09:56:16;19.30;79.60
58519;DHT22;44310;48.106;12.008;2023-05-27T09:58:43;19.40;79.60
58519;DHT22;44310;48.106;12.008;2023-05-27T10:01:11;19.40;79.50
58519;DHT22;44310;48.106;12.008;2023-05-27T10:03:38;19.40;79.60
58519;DHT22;44310;48.106;12.008;2023-05-27T10:06:09;19.50;79.60
58519;DHT22;44310;48.106;12.008;2023-05-27T10:08:41;19.40;79.50
58519;DHT22;44310;48.106;12.008;2023-05-27T10:11:13;19.40;79.40
58519;DHT22;44310;48.106;12.008;2023-05-27T10:13:41;19.40;79.50
58519;DHT22;44310;48.106;12.008;2023-05-27T10:16:19;19.40;79.60
58519;DHT22;44310;48.106;12.008;2023-05-27T10:18:47;19.40;79.60
58519;DHT22;44310;48.106;12.008;2023-05-27T10:21:20;19.40;79.50
58519;DHT22;44310;48.106;12.008;2023-05-27T10:23:58;19.40;80.10
58519;DHT22;44310;48.106;12.008;2023-05-27T10:26:39;19.40;80.20
58519;DHT22;44310;48.106;12.008;2023-05-27T10:29:12;19.40;80.10
58519;DHT22;44310;48.106;12.008;2023-05-27T10:31:50;19.40;80.30
58519;DHT22;44310;48.106;12.008;2023-05-27T10:34:20;19.50;80.50
58519;DHT22;44310;48.106;12.008;2023-05-27T10:36:58;19.50;80.40
58519;DHT22;44310;48.106;12.008;2023-05-27T10:39:25;19.40;80.40
58519;DHT22;44310;48.106;12.008;2023-05-27T10:41:56;19.50;80.50
58519;DHT22;44310;48.106;12.008;2023-05-27T10:44:37;19.40;80.60
58519;DHT22;44310;48.106;12.008;2023-05-27T10:47:11;19.50;80.60
58519;DHT22;44310;48.106;12.008;2023-05-27T10:49:47;19.40;80.40
58519;DHT22;44310;48.106;12.008;2023-05-27T10:52:16;19.40;81.20
58519;DHT22;44310;48.106;12.008;2023-05-27T10:54:47;19.40;80.60
58519;DHT22;44310;48.106;12.008;2023-05-27T10:57:17;19.40;80.70
58519;DHT22;44310;48.106;12.008;2023-05-27T10:59:52;19.40;80.90
58519;DHT22;44310;48.106;12.008;2023-05-27T11:02:22;19.40;80.80
58519;DHT22;44310;48.106;12.008;2023-05-27T11:04:50;19.30;80.80
58519;DHT22;44310;48.106;12.008;2023-05-27T11:07:19;19.40;81.10
58519;DHT22;44310;48.106;12.008;2023-05-27T11:09:48;19.40;81.50
58519;DHT22;44310;48.106;12.008;2023-05-27T11:12:22;19.60;81.50
58519;DHT22;44310;48.106;12.008;2023-05-27T11:14:52;19.40;81.30
58519;DHT22;44310;48.106;12.008;2023-05-27T11:17:20;19.40;81.30
58519;DHT22;44310;48.106;12.008;2023-05-27T11:19:47;19.50;81.10
58519;DHT22;44310;48.106;12.008;2023-05-27T11:22:18;19.40;80.90
58519;DHT22;44310;48.106;12.008;2023-05-27T11:24:58;19.40;80.60
58519;DHT22;44310;48.106;12.008;2023-05-27T11:27:37;19.40;80.60
58519;DHT22;44310;48.106;12.008;2023-05-27T11:30:09;19.50;80.80
58519;DHT22;44310;48.106;12.008;2023-05-27T11:32:37;19.40;80.40
58519;DHT22;44310;48.106;12.008;2023-05-27T11:35:12;19.40;80.40
58519;DHT22;44310;48.106;12.008;2023-05-27T11:37:39;19.40;80.40
58519;DHT22;44310;48.106;12.008;2023-05-27T11:40:11;19.40;80.40
58519;DHT22;44310;48.106;12.008;2023-05-27T11:42:43;19.50;80.50
58519;DHT22;44310;48.106;12.008;2023-05-27T11:45:19;19.40;80.60
58519;DHT22;44310;48.106;12.008;2023-05-27T11:47:47;19.50;81.30
58519;DHT22;44310;48.106;12.008;2023-05-27T11:50:18;19.50;80.50
58519;DHT22;44310;48.106;12.008;2023-05-27T11:53:01;19.30;80.60
58519;DHT22;44310;48.106;12.008;2023-05-27T11:55:30;19.50;80.90
58519;DHT22;44310;48.106;12.008;2023-05-27T11:57:58;19.50;81.00
58519;DHT22;44310;48.106;12.008;2023-05-27T12:00:25;19.50;81.00
58519;DHT22;44310;48.106;12.008;2023-05-27T12:02:52;19.50;81.00
58519;DHT22;44310;48.106;12.008;2023-05-27T12:05:20;19.50;81.20
58519;DHT22;44310;48.106;12.008;2023-05-27T12:08:01;19.50;81.00
58519;DHT22;44310;48.106;12.008;2023-05-27T12:10:28;19.50;80.90
58519;DHT22;44310;48.106;12.008;2023-05-27T12:13:03;19.80;81.00
58519;DHT22;44310;48.106;12.008;2023-05-27T12:15:30;19.60;80.80
58519;DHT22;44310;48.106;12.008;2023-05-27T12:17:58;19.50;81.00
58519;DHT22;44310;48.106;12.008;2023-05-27T12:20:25;19.40;79.90
58519;DHT22;44310;48.106;12.008;2023-05-27T12:22:55;19.60;79.10
58519;DHT22;44310;48.106;12.008;2023-05-27T12:25:23;19.50;78.60
58519;DHT22;44310;48.106;12.008;2023-05-27T12:27:50;19.50;77.70
58519;DHT22;44310;48.106;12.008;2023-05-27T12:30:17;19.50;78.60
58519;DHT22;44310;48.106;12.008;2023-05-27T12:32:44;19.50;78.20
58519;DHT22;44310;48.106;12.008;2023-05-27T12:35:12;19.50;78.00
58519;DHT22;44310;48.106;12.008;2023-05-27T12:37:39;19.50;77.90
58519;DHT22;44310;48.106;12.008;2023-05-27T12:40:07;19.60;78.00
58519;DHT22;44310;48.106;12.008;2023-05-27T12:42:36;19.50;77.90
58519;DHT22;44310;48.106;12.008;2023-05-27T12:45:04;19.60;78.10
58519;DHT22;44310;48.106;12.008;2023-05-27T12:47:31;19.60;78.10
58519;DHT22;44310;48.106;12.008;2023-05-27T12:49:58;19.60;78.00
58519;DHT22;44310;48.106;12.008;2023-05-27T12:52:26;19.60;77.50
58519;DHT22;44310;48.106;12.008;2023-05-27T12:54:55;19.60;77.70
58519;DHT22;44310;48.106;12.008;2023-05-27T12:57:22;19.60;77.10
58519;DHT22;44310;48.106;12.008;2023-05-27T12:59:50;19.60;74.30
58519;DHT22;44310;48.106;12.008;2023-05-27T13:02:17;19.80;73.00
58519;DHT22;44310;48.106;12.008;2023-05-27T13:04:44;19.70;73.60
58519;DHT22;44310;48.106;12.008;2023-05-27T13:07:12;19.80;73.70
58519;DHT22;44310;48.106;12.008;2023-05-27T13:09:42;19.70;74.00
58519;DHT22;44310;48.106;12.008;2023-05-27T13:12:09;19.40;75.00
58519;DHT22;44310;48.106;12.008;2023-05-27T13:14:36;19.80;75.50
58519;DHT22;44310;48.106;12.008;2023-05-27T13:17:03;19.80;74.80
58519;DHT22;44310;48.106;12.008;2023-05-27T13:19:33;19.80;75.10
58519;DHT22;44310;48.106;12.008;2023-05-27T13:22:00;19.80;75.10
58519;DHT22;44310;48.106;12.008;2023-05-27T13:24:28;19.80;75.30
58519;DHT22;44310;48.106;12.008;2023-05-27T13:26:55;19.80;76.00
58519;DHT22;44310;48.106;12.008;2023-05-27T13:29:22;19.70;75.40
58519;DHT22;44310;48.106;12.008;2023-05-27T13:31:49;19.90;75.60
58519;DHT22;44310;48.106;12.008;2023-05-27T13:34:17;20.20;76.00
58519;DHT22;44310;48.106;12.008;2023-05-27T13:36:44;19.70;76.10
58519;DHT22;44310;48.106;12.008;2023-05-27T13:39:11;19.70;76.40
58519;DHT22;44310;48.106;12.008;2023-05-27T13:41:38;19.70;76.60
58519;DHT22;44310;48.106;12.008;2023-05-27T13:44:06;19.70;76.60
58519;DHT22;44310;48.106;12.008;2023-05-27T13:46:33;19.80;77.50
58519;DHT22;44310;48.106;12.008;2023-05-27T13:49:00;19.80;77.40
58519;DHT22;44310;48.106;12.008;2023-05-27T13:51:29;19.40;75.00
58519;DHT22;44310;48.106;12.008;2023-05-27T13:53:57;19.80;73.10
58519;DHT22;44310;48.106;12.008;2023-05-27T13:56:24;19.70;71.90
58519;DHT22;44310;48.106;12.008;2023-05-27T13:58:52;19.70;71.50
58519;DHT22;44310;48.106;12.008;2023-05-27T14:01:19;19.70;71.80
58519;DHT22;44310;48.106;12.008;2023-05-27T14:03:46;19.80;67.00
58519;DHT22;44310;48.106;12.008;2023-05-27T14:06:14;19.70;68.40
58519;DHT22;44310;48.106;12.008;2023-05-27T14:08:41;19.70;69.40
58519;DHT22;44310;48.106;12.008;2023-05-27T14:11:08;20.00;69.50
58519;DHT22;44310;48.106;12.008;2023-05-27T14:13:35;19.80;70.00
58519;DHT22;44310;48.106;12.008;2023-05-27T14:16:03;19.80;71.80
58519;DHT22;44310;48.106;12.008;2023-05-27T14:18:30;19.80;72.10
58519;DHT22;44310;48.106;12.008;2023-05-27T14:20:57;19.80;70.60
58519;DHT22;44310;48.106;12.008;2023-05-27T14:23:25;19.80;68.50
58519;DHT22;44310;48.106;12.008;2023-05-27T14:25:52;19.80;69.50
58519;DHT22;44310;48.106;12.008;2023-05-27T14:28:19;19.80;70.20
58519;DHT22;44310;48.106;12.008;2023-05-27T14:30:47;19.80;71.00
58519;DHT22;44310;48.106;12.008;2023-05-27T14:33:14;19.80;71.70
58519;DHT22;44310;48.106;12.008;2023-05-27T14:35:41;19.80;72.10
58519;DHT22;44310;48.106;12.008;2023-05-27T14:38:08;19.80;72.70
58519;DHT22;44310;48.106;12.008;2023-05-27T14:40:35;19.80;72.80
58519;DHT22;44310;48.106;12.008;2023-05-27T14:43:02;19.80;73.10
58519;DHT22;44310;48.106;12.008;2023-05-27T14:45:30;19.80;73.10
58519;DHT22;44310;48.106;12.008;2023-05-27T14:47:57;19.80;73.00
58519;DHT22;44310;48.106;12.008;2023-05-27T14:50:24;19.80;73.40
58519;DHT22;44310;48.106;12.008;2023-05-27T14:52:53;19.70;73.20
58519;DHT22;44310;48.106;12.008;2023-05-27T14:55:21;19.70;73.10
58519;DHT22;44310;48.106;12.008;2023-05-27T14:57:48;19.60;73.40
58519;DHT22;44310;48.106;12.008;2023-05-27T15:00:15;19.60;73.60
58519;DHT22;44310;48.106;12.008;2023-05-27T15:02:42;19.60;73.80
58519;DHT22;44310;48.106;12.008;2023-05-27T15:05:10;19.60;73.80
58519;DHT22;44310;48.106;12.008;2023-05-27T15:07:38;19.60;73.80
58519;DHT22;44310;48.106;12.008;2023-05-27T15:10:05;19.60;73.60
58519;DHT22;44310;48.106;12.008;2023-05-27T15:12:41;19.60;73.80
58519;DHT22;44310;48.106;12.008;2023-05-27T15:15:11;19.50;73.80
58519;DHT22;44310;48.106;12.008;2023-05-27T15:17:39;19.50;73.80
58519;DHT22;44310;48.106;12.008;2023-05-27T15:20:08;19.50;73.80
58519;DHT22;44310;48.106;12.008;2023-05-27T15:22:36;19.50;73.50
58519;DHT22;44310;48.106;12.008;2023-05-27T15:25:03;19.40;73.40